Time;durP1;ratioP1;P1;durP2;ratioP2;P2;SDS_P1;SDS_P2;PMS_P1;PMS_P2;Temp;Humidity;BMP_temperature;BMP_pressure;BME280_temperature;BME280_humidity;BME280_pressure;Samples;Min_cycle;Max_cycle;Signal;HPM_P1;HPM_P2
2021/07/29 00:01:12;;;;;;;;;;;;;;;18.66;63.47;100432.63;1623513;87;20214;-73
2021/07/29 00:03:39;;;;;;;;;;;;;;;18.66;63.47;100434.40;1611252;86;20456;-73
2021/07/29 00:06:14;;;;;;;;;;;;;;;18.63;63.50;100430.16;1630366;86;20182;-73
2021/07/29 00:08:40;;;;;;;;;;;;;;;18.61;63.52;100429.86;1630736;87;20457;-73
2021/07/29 00:11:06;;;;;;;;;;;;;;;18.57;63.55;100426.98;1624649;87;20437;-73
2021/07/29 00:13:32;;;;;;;;;;;;;;;18.54;63.60;100422.75;1624539;87;20433;-74
2021/07/29 00:16:02;;;;;;;;;;;;;;;18.52;63.60;100425.91;1616811;87;20243;-74
2021/07/29 00:21:13;;;;;;;;;;;;;;;18.46;63.68;100424.92;1606825;87;21022;-73
2021/07/29 00:23:39;;;;;;;;;;;;;;;18.40;63.65;100419.53;1623794;87;20264;-73
2021/07/29 00:26:07;;;;;;;;;;;;;;;18.35;63.72;100421.55;1620512;88;20178;-73
2021/07/29 00:28:33;;;;;;;;;;;;;;;18.31;63.84;100419.16;1616610;88;20543;-73
2021/07/29 00:30:59;;;;;;;;;;;;;;;18.29;63.85;100419.70;1615569;86;20189;-73
2021/07/29 00:33:27;;;;;;;;;;;;;;;18.27;63.90;100413.23;1622008;87;20469;-73
2021/07/29 00:35:53;;;;;;;;;;;;;;;18.27;63.91;100418.47;1613103;87;20246;-73
2021/07/29 00:38:19;;;;;;;;;;;;;;;18.24;63.88;100419.08;1619221;86;20563;-73
2021/07/29 00:40:45;;;;;;;;;;;;;;;18.20;63.92;100418.39;1623949;86;20472;-73
2021/07/29 00:43:14;;;;;;;;;;;;;;;18.14;63.92;100422.20;1618975;86;20608;-73
2021/07/29 00:45:39;;;;;;;;;;;;;;;18.12;64.05;100419.27;1623553;87;20490;-73
2021/07/29 00:48:05;;;;;;;;;;;;;;;18.11;64.07;100419.73;1618812;86;20273;-73
2021/07/29 00:50:31;;;;;;;;;;;;;;;18.09;64.11;100418.11;1625015;87;20211;-73
2021/07/29 00:52:57;;;;;;;;;;;;;;;18.05;64.09;100417.42;1618118;88;20146;-73
2021/07/29 00:55:23;;;;;;;;;;;;;;;18.05;64.14;100417.88;1624152;87;20134;-73
2021/07/29 00:57:50;;;;;;;;;;;;;;;18.00;64.16;100414.65;1622462;88;20110;-73
2021/07/29 01:00:17;;;;;;;;;;;;;;;17.99;64.22;100409.87;1617402;88;20100;-73
2021/07/29 01:02:43;;;;;;;;;;;;;;;17.96;64.21;100411.80;1626317;87;20106;-73
2021/07/29 01:05:12;;;;;;;;;;;;;;;17.94;64.26;100414.95;1622358;87;20129;-73
2021/07/29 01:07:38;;;;;;;;;;;;;;;17.94;64.31;100410.56;1621660;86;20111;-73
2021/07/29 01:10:05;;;;;;;;;;;;;;;17.94;64.29;100413.64;1624106;87;20149;-73
2021/07/29 01:12:34;;;;;;;;;;;;;;;17.92;64.33;100415.03;1598184;88;20116;-73
2021/07/29 01:15:00;;;;;;;;;;;;;;;17.92;64.32;100407.17;1623107;86;20108;-73
2021/07/29 01:17:26;;;;;;;;;;;;;;;17.91;64.32;100403.33;1625378;87;20182;-74
2021/07/29 01:19:52;;;;;;;;;;;;;;;17.88;64.35;100403.48;1623871;87;20226;-74
2021/07/29 01:22:18;;;;;;;;;;;;;;;17.86;64.37;100410.09;1619704;87;20840;-74
2021/07/29 01:24:46;;;;;;;;;;;;;;;17.83;64.38;100407.17;1622030;86;20210;-73
2021/07/29 01:27:12;;;;;;;;;;;;;;;17.82;64.42;100400.70;1618810;87;20230;-73
2021/07/29 01:29:38;;;;;;;;;;;;;;;17.77;64.45;100398.31;1622183;87;20224;-73
2021/07/29 01:32:05;;;;;;;;;;;;;;;17.74;64.45;100397.16;1621937;86;20262;-73
2021/07/29 01:34:31;;;;;;;;;;;;;;;17.72;64.44;100398.16;1618826;88;20184;-73
2021/07/29 01:36:57;;;;;;;;;;;;;;;17.68;64.48;100403.14;1618032;87;20208;-73
2021/07/29 01:39:23;;;;;;;;;;;;;;;17.63;64.48;100399.91;1617365;88;20198;-73
2021/07/29 01:41:49;;;;;;;;;;;;;;;17.56;64.55;100394.13;1623883;86;20185;-73
2021/07/29 01:44:15;;;;;;;;;;;;;;;17.54;64.59;100393.34;1619971;87;20209;-73
2021/07/29 01:46:41;;;;;;;;;;;;;;;17.50;64.67;100390.50;1614845;87;20222;-73
2021/07/29 01:49:07;;;;;;;;;;;;;;;17.49;64.73;100380.96;1619193;87;20192;-73
2021/07/29 01:51:33;;;;;;;;;;;;;;;17.49;64.73;100386.19;1624399;88;20218;-73
2021/07/29 01:54:00;;;;;;;;;;;;;;;17.46;64.78;100380.64;1623401;87;20191;-73
2021/07/29 01:56:26;;;;;;;;;;;;;;;17.45;64.79;100388.56;1632828;87;20200;-73
2021/07/29 01:58:52;;;;;;;;;;;;;;;17.43;64.80;100386.02;1634205;86;20180;-73
2021/07/29 02:01:24;;;;;;;;;;;;;;;17.42;64.83;100388.25;1634827;87;20441;-73
2021/07/29 02:03:50;;;;;;;;;;;;;;;17.42;64.84;100390.02;1634927;87;20133;-73
2021/07/29 02:06:16;;;;;;;;;;;;;;;17.38;64.85;100389.31;1634620;86;20209;-73
2021/07/29 02:08:42;;;;;;;;;;;;;;;17.37;64.92;100391.54;1635119;87;20258;-73
2021/07/29 02:11:08;;;;;;;;;;;;;;;17.35;64.96;100390.77;1634477;87;20182;-73
2021/07/29 02:13:34;;;;;;;;;;;;;;;17.33;65.01;100394.37;1634823;87;20201;-73
2021/07/29 02:16:00;;;;;;;;;;;;;;;17.28;64.98;100393.73;1634738;87;20289;-73
2021/07/29 02:18:26;;;;;;;;;;;;;;;17.24;65.09;100390.88;1633855;87;20208;-73
2021/07/29 02:20:55;;;;;;;;;;;;;;;17.24;65.18;100389.58;1634368;86;20242;-73
2021/07/29 02:23:21;;;;;;;;;;;;;;;17.22;65.19;100392.27;1634371;87;20127;-73
2021/07/29 02:25:47;;;;;;;;;;;;;;;17.16;65.20;100390.78;1634757;87;20514;-73
2021/07/29 02:28:20;;;;;;;;;;;;;;;17.18;65.29;100386.79;1620471;87;20526;-73
2021/07/29 02:30:46;;;;;;;;;;;;;;;17.14;65.26;100385.27;1634402;86;20220;-73
2021/07/29 02:33:12;;;;;;;;;;;;;;;17.14;65.38;100383.97;1634669;87;20200;-73
2021/07/29 02:35:38;;;;;;;;;;;;;;;17.14;65.43;100388.73;1635079;87;20256;-73
2021/07/29 02:38:05;;;;;;;;;;;;;;;17.10;65.33;100391.55;1634561;87;20165;-73
2021/07/29 02:40:31;;;;;;;;;;;;;;;17.09;65.46;100395.94;1635134;87;20206;-73
2021/07/29 02:42:57;;;;;;;;;;;;;;;17.07;65.44;100391.23;1634575;86;20240;-73
2021/07/29 02:45:23;;;;;;;;;;;;;;;17.08;65.55;100403.84;1635217;87;20186;-73
2021/07/29 02:47:49;;;;;;;;;;;;;;;17.08;65.59;100400.77;1635110;87;20196;-73
2021/07/29 02:50:15;;;;;;;;;;;;;;;17.08;65.62;100397.31;1635178;87;20280;-73
2021/07/29 02:52:41;;;;;;;;;;;;;;;17.09;65.60;100398.55;1634867;86;20722;-73
2021/07/29 02:55:08;;;;;;;;;;;;;;;17.08;65.62;100402.53;1636498;87;20218;-73
2021/07/29 02:57:35;;;;;;;;;;;;;;;17.09;65.64;100409.45;1636566;87;20118;-73
2021/07/29 03:00:03;;;;;;;;;;;;;;;17.08;65.69;100410.37;1636220;87;20097;-73
2021/07/29 03:02:29;;;;;;;;;;;;;;;17.09;65.64;100409.45;1636230;87;20165;-73
2021/07/29 03:04:55;;;;;;;;;;;;;;;17.07;65.70;100403.45;1634860;87;20460;-73
2021/07/29 03:07:21;;;;;;;;;;;;;;;17.08;65.76;100402.08;1633302;86;20192;-73
2021/07/29 03:09:47;;;;;;;;;;;;;;;17.09;65.76;100402.92;1633692;86;20206;-73
2021/07/29 03:12:13;;;;;;;;;;;;;;;17.09;65.78;100397.23;1634599;87;20553;-73
2021/07/29 03:14:40;;;;;;;;;;;;;;;17.11;65.78;100403.70;1635100;87;21577;-73
2021/07/29 03:17:06;;;;;;;;;;;;;;;17.07;65.79;100402.99;1634468;86;20185;-73
2021/07/29 03:19:32;;;;;;;;;;;;;;;17.08;65.83;100407.76;1635047;87;20178;-73
2021/07/29 03:21:58;;;;;;;;;;;;;;;17.07;65.80;100414.75;1639972;86;20185;-73
2021/07/29 03:24:24;;;;;;;;;;;;;;;17.08;65.87;100411.67;1650040;86;20446;-73
2021/07/29 03:26:50;;;;;;;;;;;;;;;17.09;65.89;100411.61;1638648;86;20221;-73
2021/07/29 03:29:16;;;;;;;;;;;;;;;17.10;65.91;100416.37;1639147;86;20235;-73
2021/07/29 03:31:42;;;;;;;;;;;;;;;17.10;65.93;100418.53;1639152;86;20199;-73
2021/07/29 03:34:08;;;;;;;;;;;;;;;17.11;65.97;100417.61;1638834;87;20213;-73
2021/07/29 03:36:34;;;;;;;;;;;;;;;17.12;66.00;100408.01;1638893;86;20188;-73
2021/07/29 03:39:05;;;;;;;;;;;;;;;17.14;66.04;100407.48;1639033;87;20204;-73
2021/07/29 03:41:29;;;;;;;;;;;;;;;17.17;66.13;100408.61;1638902;86;20506;-73
2021/07/29 03:43:55;;;;;;;;;;;;;;;17.22;66.17;100409.25;1639433;86;20180;-73
2021/07/29 03:46:21;;;;;;;;;;;;;;;17.29;66.17;100409.80;1639331;87;20190;-73
2021/07/29 03:48:47;;;;;;;;;;;;;;;17.30;66.21;100408.42;1638652;86;20269;-73
2021/07/29 03:51:14;;;;;;;;;;;;;;;17.35;66.23;100408.22;1638779;87;20538;-73
2021/07/29 03:53:40;;;;;;;;;;;;;;;17.41;66.32;100406.16;1639241;87;20188;-73
2021/07/29 03:56:09;;;;;;;;;;;;;;;17.48;66.35;100404.10;1644268;87;20210;-73
2021/07/29 03:58:36;;;;;;;;;;;;;;;17.54;66.36;100409.03;1659910;85;20245;-73
2021/07/29 04:01:02;;;;;;;;;;;;;;;17.59;66.33;100414.05;1648293;86;20127;-73
2021/07/29 04:03:28;;;;;;;;;;;;;;;17.63;66.42;100415.13;1647159;87;20146;-73
2021/07/29 04:05:54;;;;;;;;;;;;;;;17.69;66.47;100403.53;1646462;86;20564;-73
2021/07/29 04:08:20;;;;;;;;;;;;;;;17.74;66.46;100412.00;1645329;86;20197;-73
2021/07/29 04:10:46;;;;;;;;;;;;;;;17.77;66.44;100419.23;1645813;86;20196;-73
2021/07/29 04:13:12;;;;;;;;;;;;;;;17.79;66.52;100417.39;1645507;86;20220;-73
2021/07/29 04:15:38;;;;;;;;;;;;;;;17.85;66.58;100423.63;1646747;86;20203;-73
2021/07/29 04:18:04;;;;;;;;;;;;;;;17.91;66.62;100419.87;1646503;87;20339;-73
2021/07/29 04:20:31;;;;;;;;;;;;;;;17.96;66.75;100423.11;1646361;86;20181;-73
2021/07/29 04:22:57;;;;;;;;;;;;;;;18.05;66.56;100416.11;1649430;85;20179;-73
2021/07/29 04:25:23;;;;;;;;;;;;;;;18.13;66.74;100422.27;1660236;86;20394;-73
2021/07/29 04:27:49;;;;;;;;;;;;;;;18.21;66.50;100421.39;1646687;86;20243;-73
2021/07/29 04:30:16;;;;;;;;;;;;;;;18.25;66.77;100419.00;1646903;86;20264;-73
2021/07/29 04:32:51;;;;;;;;;;;;;;;18.38;66.82;100412.69;1648397;86;20157;-73
2021/07/29 04:35:17;;;;;;;;;;;;;;;18.49;66.74;100413.83;1646768;86;20283;-73
2021/07/29 04:37:43;;;;;;;;;;;;;;;18.57;66.57;100414.73;1646839;87;20847;-73
2021/07/29 04:40:27;;;;;;;;;;;;;;;18.66;66.77;100413.45;1646375;86;20203;-73
2021/07/29 04:42:53;;;;;;;;;;;;;;;18.76;66.77;100416.78;1646671;86;20453;-73
2021/07/29 04:45:19;;;;;;;;;;;;;;;18.88;66.66;100417.06;1646755;86;20666;-73
2021/07/29 04:47:45;;;;;;;;;;;;;;;18.99;66.76;100419.48;1627462;87;20258;-73
2021/07/29 04:50:11;;;;;;;;;;;;;;;19.11;66.65;100420.60;1621498;87;20777;-73
2021/07/29 04:52:37;;;;;;;;;;;;;;;19.20;66.44;100416.64;1657286;86;20299;-73
2021/07/29 04:55:04;;;;;;;;;;;;;;;19.23;66.52;100421.71;1641854;87;20190;-73
2021/07/29 04:57:33;;;;;;;;;;;;;;;19.24;66.61;100419.44;1607879;87;20187;-73
2021/07/29 04:59:59;;;;;;;;;;;;;;;19.28;66.63;100412.63;1623760;87;20720;-73
2021/07/29 05:02:26;;;;;;;;;;;;;;;19.29;66.51;100415.63;1627886;86;39985;-73
2021/07/29 05:05:02;;;;;;;;;;;;;;;19.26;66.51;100416.27;1623537;86;20454;-74
2021/07/29 05:07:28;;;;;;;;;;;;;;;19.27;66.55;100411.41;1608516;87;20429;-74
2021/07/29 05:09:54;;;;;;;;;;;;;;;19.27;66.48;100410.09;1624940;85;20196;-74
2021/07/29 05:12:20;;;;;;;;;;;;;;;19.31;66.69;100405.91;1622104;86;20218;-75
2021/07/29 05:14:46;;;;;;;;;;;;;;;19.41;66.81;100405.78;1622730;87;21538;-75
2021/07/29 05:17:12;;;;;;;;;;;;;;;19.69;67.02;100410.36;1622103;86;20264;-75
2021/07/29 05:19:38;;;;;;;;;;;;;;;20.13;67.21;100413.01;1622821;87;20211;-75
2021/07/29 05:22:05;;;;;;;;;;;;;;;20.69;66.63;100414.03;1618209;88;20189;-75
2021/07/29 05:24:31;;;;;;;;;;;;;;;21.15;66.60;100415.95;1620347;87;20240;-75
2021/07/29 05:26:57;;;;;;;;;;;;;;;21.69;66.67;100413.83;1621764;88;20129;-75
2021/07/29 05:29:25;;;;;;;;;;;;;;;22.16;66.36;100414.64;1623477;88;20461;-75
2021/07/29 05:31:51;;;;;;;;;;;;;;;22.74;66.30;100422.50;1622087;87;20234;-75
2021/07/29 05:34:17;;;;;;;;;;;;;;;23.20;65.83;100421.91;1622350;87;20387;-75
2021/07/29 05:36:43;;;;;;;;;;;;;;;23.68;65.45;100420.15;1617970;86;20518;-75
2021/07/29 05:39:09;;;;;;;;;;;;;;;24.07;65.49;100418.48;1618882;88;20539;-75
2021/07/29 05:41:35;;;;;;;;;;;;;;;24.46;65.35;100410.28;1618935;88;20178;-75
2021/07/29 05:44:02;;;;;;;;;;;;;;;24.92;64.90;100407.55;1624494;86;20372;-75
2021/07/29 05:46:27;;;;;;;;;;;;;;;25.36;64.83;100407.48;1624163;87;21544;-75
2021/07/29 05:48:54;;;;;;;;;;;;;;;25.85;64.58;100410.58;1620470;87;20266;-75
2021/07/29 05:51:20;;;;;;;;;;;;;;;26.06;64.38;100406.95;1622727;87;20225;-75
2021/07/29 05:53:47;;;;;;;;;;;;;;;26.36;64.23;100416.81;1618067;88;20138;-76
2021/07/29 05:56:13;;;;;;;;;;;;;;;26.44;64.01;100421.95;1620391;86;20145;-76
2021/07/29 05:58:41;;;;;;;;;;;;;;;26.77;64.17;100416.37;1619055;87;20208;-75
2021/07/29 06:01:10;;;;;;;;;;;;;;;26.95;63.95;100422.73;1619644;86;20599;-75
2021/07/29 06:03:36;;;;;;;;;;;;;;;26.99;63.55;100422.84;1619727;88;20572;-75
2021/07/29 06:06:02;;;;;;;;;;;;;;;27.41;63.55;100425.80;1623063;87;20692;-75
2021/07/29 06:08:28;;;;;;;;;;;;;;;27.80;63.23;100416.05;1621111;87;20204;-75
2021/07/29 06:10:54;;;;;;;;;;;;;;;28.20;63.26;100409.21;1610454;88;21535;-75
2021/07/29 06:13:20;;;;;;;;;;;;;;;28.54;63.26;100406.92;1617690;87;20254;-76
2021/07/29 06:15:46;;;;;;;;;;;;;;;28.53;62.78;100411.41;1622018;88;20174;-76
2021/07/29 06:18:13;;;;;;;;;;;;;;;28.69;62.94;100409.43;1619003;88;20217;-76
2021/07/29 06:20:41;;;;;;;;;;;;;;;28.70;62.84;100413.77;1618963;88;20188;-76
2021/07/29 06:23:07;;;;;;;;;;;;;;;28.99;62.34;100411.86;1614363;88;20772;-76
2021/07/29 06:25:33;;;;;;;;;;;;;;;29.24;62.07;100412.11;1615244;88;20302;-76
2021/07/29 06:27:59;;;;;;;;;;;;;;;29.51;61.63;100411.27;1619318;88;20208;-76
2021/07/29 06:30:25;;;;;;;;;;;;;;;29.61;61.11;100407.55;1624308;86;20265;-76
2021/07/29 06:32:51;;;;;;;;;;;;;;;29.58;60.68;100403.02;1618540;86;20253;-75
2021/07/29 06:35:17;;;;;;;;;;;;;;;29.65;60.86;100401.38;1623237;86;20241;-75
2021/07/29 06:37:43;;;;;;;;;;;;;;;29.95;60.96;100409.48;1622046;86;20181;-75
2021/07/29 06:40:10;;;;;;;;;;;;;;;29.83;59.95;100404.05;1620473;88;20241;-75
2021/07/29 06:42:36;;;;;;;;;;;;;;;29.83;59.96;100405.38;1622879;86;20139;-75
2021/07/29 06:45:02;;;;;;;;;;;;;;;29.95;59.89;100414.31;1616253;88;20108;-76
2021/07/29 06:47:31;;;;;;;;;;;;;;;30.01;59.42;100412.06;1616051;88;20161;-76
2021/07/29 06:49:56;;;;;;;;;;;;;;;30.06;59.21;100416.44;1623294;88;20104;-76
2021/07/29 06:52:22;;;;;;;;;;;;;;;30.31;59.29;100411.59;1616879;88;20222;-76
2021/07/29 06:54:48;;;;;;;;;;;;;;;30.34;59.23;100404.61;1621207;88;20168;-76
2021/07/29 06:57:14;;;;;;;;;;;;;;;30.25;58.26;100410.38;1619244;87;20130;-76
2021/07/29 06:59:40;;;;;;;;;;;;;;;30.21;58.60;100403.69;1609030;86;20205;-76
2021/07/29 07:02:06;;;;;;;;;;;;;;;30.32;58.17;100410.59;1619177;86;20150;-76
2021/07/29 07:04:32;;;;;;;;;;;;;;;30.43;58.04;100413.00;1620238;88;20763;-76
2021/07/29 07:06:58;;;;;;;;;;;;;;;30.35;57.66;100416.11;1617768;88;189001;-76
2021/07/29 07:09:24;;;;;;;;;;;;;;;30.49;57.40;100410.20;1616085;86;20208;-76
2021/07/29 07:11:50;;;;;;;;;;;;;;;30.64;57.56;100404.66;1625308;88;20149;-76
2021/07/29 07:14:18;;;;;;;;;;;;;;;30.65;56.85;100410.83;1621046;87;20161;-76
2021/07/29 07:16:44;;;;;;;;;;;;;;;30.74;56.89;100405.34;1620141;86;20098;-76
2021/07/29 07:19:10;;;;;;;;;;;;;;;30.89;56.64;100402.41;1616579;87;20102;-76
2021/07/29 07:21:42;;;;;;;;;;;;;;;30.84;56.58;100399.87;1625345;88;20125;-76
2021/07/29 07:24:08;;;;;;;;;;;;;;;30.73;56.40;100399.66;1624129;87;20201;-76
2021/07/29 07:26:34;;;;;;;;;;;;;;;30.69;56.22;100399.64;1620997;86;20139;-75
2021/07/29 07:29:00;;;;;;;;;;;;;;;30.49;55.98;100400.37;1618137;86;20293;-76
2021/07/29 07:31:26;;;;;;;;;;;;;;;30.54;56.24;100394.06;1618976;87;20135;-76
2021/07/29 07:33:52;;;;;;;;;;;;;;;30.85;56.10;100402.39;1623892;87;20118;-75
2021/07/29 07:36:22;;;;;;;;;;;;;;;31.22;55.83;100393.17;1617617;88;20115;-75
2021/07/29 07:38:52;;;;;;;;;;;;;;;31.45;55.59;100389.38;1618934;87;20171;-76
2021/07/29 07:41:17;;;;;;;;;;;;;;;31.59;55.33;100388.73;1616749;88;20109;-78
2021/07/29 07:43:43;;;;;;;;;;;;;;;31.46;54.74;100392.39;1617483;88;20114;-77
2021/07/29 07:46:09;;;;;;;;;;;;;;;31.51;54.74;100376.70;1621777;87;20228;-78
2021/07/29 07:48:37;;;;;;;;;;;;;;;31.56;54.13;100385.05;1613624;86;20160;-79
2021/07/29 07:51:03;;;;;;;;;;;;;;;31.50;53.97;100371.02;1624158;86;20741;-77
2021/07/29 07:53:29;;;;;;;;;;;;;;;31.44;53.83;100379.70;1619689;87;20409;-77
2021/07/29 07:55:57;;;;;;;;;;;;;;;31.44;53.83;100369.00;1619055;88;20130;-77
2021/07/29 07:58:23;;;;;;;;;;;;;;;31.39;53.33;100368.16;1625544;87;20136;-77
2021/07/29 08:00:49;;;;;;;;;;;;;;;31.52;53.22;100366.34;1633060;87;20157;-77
2021/07/29 08:03:15;;;;;;;;;;;;;;;31.66;52.90;100371.53;1628030;87;20100;-77
2021/07/29 08:05:41;;;;;;;;;;;;;;;31.35;52.54;100369.99;1632265;87;20210;-77
2021/07/29 08:08:08;;;;;;;;;;;;;;;31.23;52.63;100368.96;1635346;87;20168;-77
2021/07/29 08:10:38;;;;;;;;;;;;;;;31.24;52.61;100377.31;1634474;87;20110;-77
2021/07/29 08:13:06;;;;;;;;;;;;;;;31.36;52.19;100373.00;1611867;87;20537;-77
2021/07/29 08:15:32;;;;;;;;;;;;;;;31.39;52.58;100366.83;1628780;87;20143;-77
2021/07/29 08:17:59;;;;;;;;;;;;;;;31.32;51.77;100379.17;1628637;87;20099;-77
2021/07/29 08:20:25;;;;;;;;;;;;;;;31.16;51.63;100373.82;1633895;87;20114;-77
2021/07/29 08:22:52;;;;;;;;;;;;;;;30.95;51.57;100368.38;1629295;87;20138;-77
2021/07/29 08:25:22;;;;;;;;;;;;;;;30.84;51.59;100363.34;1635217;87;20098;-77
2021/07/29 08:27:49;;;;;;;;;;;;;;;30.63;51.56;100370.95;1635602;87;20447;-77
2021/07/29 08:30:19;;;;;;;;;;;;;;;30.59;51.18;100370.43;1628290;86;20115;-78
2021/07/29 08:32:46;;;;;;;;;;;;;;;30.50;51.20;100359.84;1631462;86;20140;-78
2021/07/29 08:35:12;;;;;;;;;;;;;;;30.41;51.04;100366.13;1634623;87;20101;-77
2021/07/29 08:37:44;;;;;;;;;;;;;;;30.15;50.61;100360.33;1636125;87;20110;-77
2021/07/29 08:40:08;;;;;;;;;;;;;;;29.73;50.70;100370.80;1635121;87;20102;-77
2021/07/29 08:42:35;;;;;;;;;;;;;;;29.23;50.53;100375.32;1634848;86;20098;-78
2021/07/29 08:45:01;;;;;;;;;;;;;;;28.94;50.45;100365.36;1632874;87;20102;-78
2021/07/29 08:47:33;;;;;;;;;;;;;;;28.85;50.50;100362.26;1636342;86;20789;-78
2021/07/29 08:50:02;;;;;;;;;;;;;;;28.82;50.64;100366.55;1632709;87;20116;-78
2021/07/29 08:52:34;;;;;;;;;;;;;;;28.72;50.33;100370.55;1632402;87;20126;-78
2021/07/29 08:55:01;;;;;;;;;;;;;;;28.68;50.17;100366.51;1631328;87;20621;-78
2021/07/29 08:57:28;;;;;;;;;;;;;;;28.64;50.00;100363.30;1626931;87;20099;-77
2021/07/29 09:00:11;;;;;;;;;;;;;;;28.49;49.88;100364.80;1620712;86;20137;-77
2021/07/29 09:02:43;;;;;;;;;;;;;;;28.21;49.84;100371.00;1618276;88;20509;-77
2021/07/29 09:05:17;;;;;;;;;;;;;;;28.34;49.76;100362.25;1613943;86;20792;-77
2021/07/29 09:07:45;;;;;;;;;;;;;;;28.21;49.58;100370.55;1621092;88;20166;-77
2021/07/29 09:10:24;;;;;;;;;;;;;;;27.91;49.62;100365.41;1620585;87;20110;-77
2021/07/29 09:13:16;;;;;;;;;;;;;;;27.82;49.40;100367.10;1615490;86;20530;-77
2021/07/29 09:15:44;;;;;;;;;;;;;;;27.96;49.34;100364.50;1617813;88;20136;-79
2021/07/29 09:18:16;;;;;;;;;;;;;;;28.83;49.49;100375.72;1614502;87;20580;-79
2021/07/29 09:20:42;;;;;;;;;;;;;;;29.12;49.17;100377.35;1596470;88;20115;-79
2021/07/29 09:23:14;;;;;;;;;;;;;;;29.36;48.73;100361.63;1632543;86;20883;-79
2021/07/29 09:25:43;;;;;;;;;;;;;;;29.30;48.92;100363.56;1631994;86;20410;-79
2021/07/29 09:28:10;;;;;;;;;;;;;;;28.92;48.40;100352.20;1624700;86;20132;-79
2021/07/29 09:30:36;;;;;;;;;;;;;;;28.71;48.55;100346.75;1623989;86;20097;-79
2021/07/29 09:33:05;;;;;;;;;;;;;;;28.52;48.41;100357.85;1629296;87;20090;-79
2021/07/29 09:35:45;;;;;;;;;;;;;;;28.39;47.70;100357.34;1623688;88;20470;-79
2021/07/29 09:38:23;;;;;;;;;;;;;;;28.28;47.70;100358.84;1615602;88;20456;-77
2021/07/29 09:40:54;;;;;;;;;;;;;;;28.15;47.44;100350.30;1623023;88;20116;-77
2021/07/29 09:43:22;;;;;;;;;;;;;;;28.11;47.31;100349.75;1620401;88;20471;-78
2021/07/29 09:45:51;;;;;;;;;;;;;;;27.95;46.97;100351.70;1617384;88;20487;-78
2021/07/29 09:48:18;;;;;;;;;;;;;;;27.86;47.01;100355.70;1620851;88;20100;-78
2021/07/29 09:50:46;;;;;;;;;;;;;;;27.76;46.97;100351.72;1623730;88;20595;-73
2021/07/29 09:53:13;;;;;;;;;;;;;;;27.61;46.96;100357.11;1614989;86;20468;-73
2021/07/29 09:55:38;;;;;;;;;;;;;;;27.39;46.80;100354.72;1620421;88;20237;-73
2021/07/29 09:58:08;;;;;;;;;;;;;;;27.22;46.69;100358.89;1612410;88;20412;-73
2021/07/29 10:00:36;;;;;;;;;;;;;;;27.03;46.80;100360.53;1623407;88;20232;-73
2021/07/29 10:03:04;;;;;;;;;;;;;;;26.92;46.59;100364.62;1618657;88;20211;-74
2021/07/29 10:05:50;;;;;;;;;;;;;;;26.79;46.47;100365.83;1620250;88;20499;-74
2021/07/29 10:08:22;;;;;;;;;;;;;;;26.65;46.50;100371.02;1613589;88;20194;-74
2021/07/29 10:10:59;;;;;;;;;;;;;;;26.47;46.37;100376.13;1623694;88;20437;-74
2021/07/29 10:13:34;;;;;;;;;;;;;;;26.34;46.50;100372.36;1620142;88;20114;-74
2021/07/29 10:16:00;;;;;;;;;;;;;;;26.26;46.43;100369.48;1621325;88;20528;-74
2021/07/29 10:18:26;;;;;;;;;;;;;;;26.20;46.57;100371.34;1619634;88;20167;-74
2021/07/29 10:20:58;;;;;;;;;;;;;;;26.22;46.40;100361.92;1619569;88;20240;-74
2021/07/29 10:23:29;;;;;;;;;;;;;;;26.21;46.26;100349.16;1618327;88;20430;-74
2021/07/29 10:26:03;;;;;;;;;;;;;;;26.19;46.20;100348.94;1622042;88;20108;-74
2021/07/29 10:28:35;;;;;;;;;;;;;;;26.20;46.28;100354.11;1625289;88;20548;-74
2021/07/29 10:31:04;;;;;;;;;;;;;;;26.20;46.18;100350.13;1620323;88;20114;-74
2021/07/29 10:33:28;;;;;;;;;;;;;;;26.24;46.26;100355.52;1624379;86;20543;-74
2021/07/29 10:35:58;;;;;;;;;;;;;;;26.25;45.94;100347.09;1623104;86;20178;-74
2021/07/29 10:38:46;;;;;;;;;;;;;;;26.21;46.03;100346.51;1623236;88;20102;-74
2021/07/29 10:41:30;;;;;;;;;;;;;;;26.26;45.96;100340.81;1620219;86;20122;-74
2021/07/29 10:43:56;;;;;;;;;;;;;;;26.30;45.89;100338.25;1621967;86;20110;-74
2021/07/29 10:46:26;;;;;;;;;;;;;;;26.38;45.83;100339.30;1614309;86;20412;-74
2021/07/29 10:49:12;;;;;;;;;;;;;;;26.57;45.89;100335.03;1608886;86;20512;-74
2021/07/29 10:51:24;;;;;;;;;;;;;;;26.64;45.80;100326.89;1615174;88;20313;-73
2021/07/29 10:53:52;;;;;;;;;;;;;;;26.61;45.56;100330.66;1623269;88;20646;-78
2021/07/29 10:56:20;;;;;;;;;;;;;;;26.62;45.50;100324.86;1615748;88;20147;-76
2021/07/29 10:58:49;;;;;;;;;;;;;;;26.58;45.36;100324.29;1618718;87;20210;-75
2021/07/29 11:01:16;;;;;;;;;;;;;;;26.53;45.39;100329.64;1622422;88;20418;-75
2021/07/29 11:03:49;;;;;;;;;;;;;;;26.55;45.55;100329.02;1624551;88;20564;-75
2021/07/29 11:06:35;;;;;;;;;;;;;;;26.70;45.58;100320.56;1618095;88;20133;-76
2021/07/29 11:08:57;;;;;;;;;;;;;;;26.81;45.18;100319.62;1618920;88;20233;-76
2021/07/29 11:11:39;;;;;;;;;;;;;;;26.79;45.09;100316.26;1617076;88;20613;-76
2021/07/29 11:14:06;;;;;;;;;;;;;;;26.57;44.92;100326.59;1616776;87;20396;-76
2021/07/29 11:16:32;;;;;;;;;;;;;;;26.54;45.16;100324.69;1621389;88;20492;-76
2021/07/29 11:19:02;;;;;;;;;;;;;;;26.60;45.02;100319.69;1396323;87;20012992;-76
2021/07/29 11:21:28;;;;;;;;;;;;;;;26.60;44.79;100323.67;1623516;87;20166;-76
2021/07/29 11:23:55;;;;;;;;;;;;;;;26.67;44.72;100323.97;1615592;87;20135;-76
2021/07/29 11:26:23;;;;;;;;;;;;;;;26.69;44.77;100316.23;1613987;88;20514;-76
2021/07/29 11:29:09;;;;;;;;;;;;;;;26.80;44.76;100330.36;1623451;87;20190;-76
2021/07/29 11:31:36;;;;;;;;;;;;;;;26.95;44.72;100314.41;1596688;88;20203;-76
2021/07/29 11:34:02;;;;;;;;;;;;;;;27.04;44.39;100322.88;1620992;88;20136;-76
2021/07/29 11:36:32;;;;;;;;;;;;;;;27.05;44.34;100321.91;1614689;87;20222;-76
2021/07/29 11:39:00;;;;;;;;;;;;;;;26.98;44.05;100328.77;1618336;87;20505;-76
2021/07/29 11:41:28;;;;;;;;;;;;;;;26.90;44.06;100320.62;1623468;87;20195;-76
2021/07/29 11:43:56;;;;;;;;;;;;;;;26.80;44.12;100309.98;1629025;87;20177;-76
2021/07/29 11:46:24;;;;;;;;;;;;;;;26.79;44.10;100302.16;1628698;87;20425;-76
2021/07/29 11:49:04;;;;;;;;;;;;;;;26.80;44.07;100303.34;1627984;86;20226;-76
2021/07/29 11:51:32;;;;;;;;;;;;;;;26.83;43.73;100296.93;1622621;86;20193;-76
2021/07/29 11:54:01;;;;;;;;;;;;;;;26.79;43.65;100305.65;1620041;86;20226;-76
2021/07/29 11:56:30;;;;;;;;;;;;;;;26.85;43.60;100302.94;1616954;86;20178;-76
2021/07/29 11:59:05;;;;;;;;;;;;;;;26.83;43.36;100308.87;1622747;87;20221;-76
2021/07/29 12:01:30;;;;;;;;;;;;;;;26.81;43.39;100302.38;1631254;86;20232;-76
2021/07/29 12:03:58;;;;;;;;;;;;;;;26.85;43.39;100296.30;1629746;86;20225;-76
2021/07/29 12:06:25;;;;;;;;;;;;;;;26.89;43.31;100305.19;1633404;86;20149;-76
2021/07/29 12:08:53;;;;;;;;;;;;;;;26.90;43.20;100302.88;1628801;86;20978;-76
2021/07/29 12:11:20;;;;;;;;;;;;;;;26.89;42.98;100301.69;1632464;86;20676;-76
2021/07/29 12:13:46;;;;;;;;;;;;;;;26.84;42.89;100303.42;1631985;87;20222;-76
2021/07/29 12:16:13;;;;;;;;;;;;;;;26.71;42.76;100306.81;1625986;87;20214;-76
2021/07/29 12:18:39;;;;;;;;;;;;;;;26.64;42.72;100290.59;1630541;87;20311;-76
2021/07/29 12:21:05;;;;;;;;;;;;;;;26.66;42.80;100287.81;1632385;86;20192;-76
2021/07/29 12:23:32;;;;;;;;;;;;;;;26.63;42.52;100295.55;1634375;87;20183;-76
2021/07/29 12:26:13;;;;;;;;;;;;;;;26.63;42.75;100305.32;1634155;87;20200;-76
2021/07/29 12:28:46;;;;;;;;;;;;;;;26.59;42.42;100302.09;1632079;87;20104;-76
2021/07/29 12:31:20;;;;;;;;;;;;;;;26.57;42.32;100302.72;1634316;87;20300;-76
2021/07/29 12:34:05;;;;;;;;;;;;;;;26.54;42.31;100302.15;1633538;87;20125;-76
2021/07/29 12:36:43;;;;;;;;;;;;;;;26.44;42.34;100299.98;1634199;87;20225;-76
2021/07/29 12:39:16;;;;;;;;;;;;;;;26.43;42.30;100311.55;1633610;87;20215;-75
2021/07/29 12:41:43;;;;;;;;;;;;;;;26.41;42.27;100302.89;1634564;86;20169;-75